METAR LDZA 280700Z 24003KT 200V270 CAVOK 24/19 Q1014 NOSIG=
METAR LDZA 280630Z 25003KT 210V310 CAVOK 23/19 Q1014 NOSIG=
METAR LDZA 280600Z 21003KT 170V250 CAVOK 22/19 Q1014 NOSIG=
METAR LDZA 280530Z 00000KT CAVOK 21/19 Q1014 NOSIG=
METAR LDZA 280500Z 00000KT CAVOK 20/18 Q1014 NOSIG=
METAR LDZA 280430Z VRB02KT CAVOK 19/17 Q1014 NOSIG=
METAR LDZA 280400Z 00000KT CAVOK 19/17 Q1014 NOSIG=
METAR LDZA 280330Z 00000KT CAVOK 19/17 Q1014 NOSIG=
METAR LDZA 280300Z 27003KT 240V310 CAVOK 19/17 Q1014 NOSIG=
METAR LDZA 280230Z 24004KT CAVOK 19/17 Q1014 NOSIG=
METAR LDZA 280200Z 25004KT CAVOK 19/16 Q1014 NOSIG=
METAR LDZA 280130Z 19003KT CAVOK 19/17 Q1014 NOSIG=
METAR LDZA 280100Z VRB02KT CAVOK 20/17 Q1014 NOSIG=
METAR LDZA 280030Z 24003KT CAVOK 20/17 Q1014 NOSIG=
METAR LDZA 280000Z 21004KT CAVOK 20/18 Q1015 NOSIG=
METAR LDZA 272330Z 24003KT CAVOK 21/19 Q1015 NOSIG=
METAR LDZA 272300Z 25003KT 230V310 CAVOK 21/19 Q1015 NOSIG=
METAR LDZA 272230Z 26004KT CAVOK 21/19 Q1015 NOSIG=
METAR LDZA 272200Z 00000KT CAVOK 21/18 Q1015 NOSIG=
METAR LDZA 272130Z 00000KT CAVOK 22/19 Q1015 NOSIG=
METAR LDZA 272100Z 00000KT CAVOK 23/20 Q1015 NOSIG=
METAR LDZA 272030Z 00000KT CAVOK 23/20 Q1015 NOSIG=
METAR LDZA 272000Z 00000KT CAVOK 25/21 Q1015 NOSIG=
METAR LDZA 271930Z 00000KT CAVOK 26/20 Q1015 NOSIG=
METAR LDZA 271900Z 00000KT CAVOK 27/21 Q1015 NOSIG=
METAR LDZA 271830Z 00000KT CAVOK 28/21 Q1015 NOSIG=
METAR LDZA 271800Z 00000KT CAVOK 30/21 Q1015 NOSIG=
METAR LDZA 271730Z 00000KT CAVOK 30/21 Q1014 NOSIG=
METAR LDZA 271700Z 00000KT CAVOK 31/20 Q1014 NOSIG=
METAR LDZA 271630Z VRB01KT CAVOK 31/20 Q1014 NOSIG=
METAR LDZA 271600Z 23003KT 210V270 CAVOK 31/20 Q1015 NOSIG=
METAR LDZA 271530Z 22004KT 170V250 CAVOK 31/19 Q1015 NOSIG=
METAR LDZA 271500Z 21006KT 140V250 CAVOK 32/18 Q1015 NOSIG=
METAR LDZA 271430Z 21005KT 120V260 CAVOK 32/19 Q1015 NOSIG=
METAR LDZA 271400Z 25006KT 210V290 CAVOK 31/18 Q1015 NOSIG=
METAR LDZA 271330Z 24007KT 190V290 CAVOK 31/19 Q1016 NOSIG=
METAR LDZA 271300Z 23006KT 170V290 CAVOK 31/19 Q1016 NOSIG=
METAR LDZA 271230Z 26009KT 230V290 CAVOK 30/18 Q1016 NOSIG=
METAR LDZA 271200Z 22006KT 150V250 CAVOK 30/19 Q1016 NOSIG=
METAR LDZA 271130Z 21007KT 170V250 CAVOK 29/20 Q1017 NOSIG=
METAR LDZA 271100Z 24007KT 200V270 CAVOK 29/19 Q1017 NOSIG=
METAR LDZA 271030Z 24008KT 9999 -RA NSC 28/18 Q1017 NOSIG=
METAR LDZA 271000Z 26007KT 220V300 CAVOK 28/19 Q1017 NOSIG=
METAR LDZA 270930Z 24007KT 200V270 CAVOK 27/19 Q1017 NOSIG=
METAR LDZA 270900Z 26008KT 240V300 CAVOK 28/18 Q1016 NOSIG=
METAR LDZA 270830Z 26005KT 230V320 CAVOK 27/19 Q1016 BECMG 23008KT=
METAR COR LDZA 270800Z 22004KT 170V270 CAVOK 26/19 Q1016 BECMG 23008KT=
METAR LDZA 270730Z 25005KT 230V290 CAVOK 25/18 Q1016 BECMG 23008KT=
METAR LDZA 270700Z 24006KT 200V270 CAVOK 25/18 Q1016 BECMG 23008KT=
METAR LDZA 270630Z 23005KT CAVOK 24/18 Q1016 BECMG 23008KT=
METAR LDZA 270600Z 24004KT CAVOK 22/18 Q1016 NOSIG=
METAR LDZA 270530Z VRB02KT CAVOK 21/17 Q1016 NOSIG=
METAR LDZA 270500Z 22002KT CAVOK 21/17 Q1016 NOSIG=
METAR LDZA 270430Z VRB01KT CAVOK 20/17 Q1015 NOSIG=
METAR LDZA 270400Z 21006KT CAVOK 19/16 Q1015 NOSIG=
METAR LDZA 270330Z 21005KT CAVOK 20/16 Q1015 NOSIG=
METAR LDZA 270300Z 19003KT CAVOK 20/16 Q1015 NOSIG=
METAR LDZA 270230Z VRB01KT CAVOK 19/17 Q1015 NOSIG=
METAR LDZA 270200Z 24003KT 190V270 CAVOK 19/16 Q1015 NOSIG=
METAR LDZA 270130Z 22004KT CAVOK 19/16 Q1015 NOSIG=
METAR LDZA 270100Z 22006KT CAVOK 19/17 Q1015 NOSIG=
METAR LDZA 270030Z 22003KT CAVOK 20/17 Q1015 NOSIG=
METAR LDZA 270000Z 23005KT CAVOK 20/17 Q1015 NOSIG=
METAR LDZA 262330Z 26003KT 230V300 CAVOK 21/17 Q1015 NOSIG=
METAR LDZA 262300Z 28003KT 220V350 CAVOK 21/17 Q1014 NOSIG=
METAR LDZA 262230Z 24005KT CAVOK 22/17 Q1014 NOSIG=
METAR LDZA 262200Z 31005KT CAVOK 22/17 Q1014 NOSIG=
METAR LDZA 262130Z VRB02KT CAVOK 23/17 Q1014 NOSIG=
METAR LDZA 262100Z 00000KT CAVOK 24/17 Q1013 NOSIG=
METAR LDZA 262030Z 00000KT CAVOK 23/18 Q1013 NOSIG=
METAR LDZA 262000Z VRB01KT CAVOK 24/18 Q1014 NOSIG=
METAR LDZA 261930Z 00000KT CAVOK 25/18 Q1013 NOSIG=